Time;durP1;ratioP1;P1;durP2;ratioP2;P2;SDS_P1;SDS_P2;PMS_P1;PMS_P2;Temp;Humidity;BMP_temperature;BMP_pressure;BME280_temperature;BME280_humidity;BME280_pressure;Samples;Min_cycle;Max_cycle;Signal;HPM_P1;HPM_P2
2022/09/22 00:00:09;;;;;;;16.00;5.90;;;;;;;9.44;75.68;99298.25;106018;1274;97862;-66
2022/09/22 00:02:59;;;;;;;14.70;6.50;;;;;;;9.44;75.68;99305.67;106165;1274;110710;-65
2022/09/22 00:05:30;;;;;;;15.60;6.80;;;;;;;9.44;75.69;99306.04;106125;1274;97960;-66
2022/09/22 00:08:03;;;;;;;16.10;6.10;;;;;;;9.45;75.79;99304.05;106019;1274;97848;-70
2022/09/22 00:10:31;;;;;;;16.00;7.60;;;;;;;9.48;75.77;99303.31;106094;1274;112070;-66
2022/09/22 00:13:03;;;;;;;16.80;6.50;;;;;;;9.47;75.76;99303.38;106103;1274;95210;-65
2022/09/22 00:15:34;;;;;;;15.00;6.90;;;;;;;9.48;75.86;99301.88;106097;1274;107733;-68
2022/09/22 00:18:02;;;;;;;17.90;7.40;;;;;;;9.49;75.75;99305.20;106089;1274;97976;-65
2022/09/22 00:20:30;;;;;;;14.90;6.40;;;;;;;9.50;75.77;99302.83;106227;1274;97870;-66
2022/09/22 00:22:58;;;;;;;16.60;7.50;;;;;;;9.49;75.80;99301.10;106163;1274;112041;-67
2022/09/22 00:25:30;;;;;;;19.00;6.70;;;;;;;9.48;75.72;99300.29;106224;1274;97886;-66
2022/09/22 00:28:04;;;;;;;17.60;7.20;;;;;;;9.46;75.84;99300.59;106140;1274;107491;-66
2022/09/22 00:30:44;;;;;;;15.00;6.60;;;;;;;9.47;75.88;99300.21;106082;1274;95268;-64
2022/09/22 00:33:12;;;;;;;13.10;6.20;;;;;;;9.47;75.87;99297.17;106122;1274;97839;-64
2022/09/22 00:35:42;;;;;;;18.70;6.80;;;;;;;9.46;75.95;99301.70;106104;1274;113645;-65
2022/09/22 00:38:10;;;;;;;17.30;7.00;;;;;;;9.46;75.79;99299.36;106075;1274;98008;-64
2022/09/22 00:40:40;;;;;;;16.50;6.10;;;;;;;9.45;75.77;99297.31;106099;1274;108330;-65
2022/09/22 00:43:41;;;;;;;17.20;6.80;;;;;;;9.43;75.90;99299.38;106101;1274;95194;-63
2022/09/22 00:46:30;;;;;;;17.00;6.60;;;;;;;9.44;75.88;99297.58;106141;1274;97839;-66
2022/09/22 00:49:07;;;;;;;16.20;6.40;;;;;;;9.42;75.91;99293.06;106078;1274;111437;-65
2022/09/22 00:51:42;;;;;;;14.30;5.80;;;;;;;9.42;75.94;99296.10;106109;1274;97700;-66
2022/09/22 00:54:17;;;;;;;15.30;6.90;;;;;;;9.40;75.95;99294.46;106094;1274;107596;-66
2022/09/22 00:57:05;;;;;;;15.00;6.60;;;;;;;9.38;75.97;99297.52;106053;1274;97892;-66
2022/09/22 00:59:37;;;;;;;15.90;6.20;;;;;;;9.38;76.07;99298.09;106048;1274;97947;-67
2022/09/22 01:02:09;;;;;;;15.90;7.50;;;;;;;9.38;76.01;99294.88;106158;1274;111368;-65
2022/09/22 01:04:41;;;;;;;17.80;7.10;;;;;;;9.39;76.09;99293.61;106121;1274;97001;-65
2022/09/22 01:07:14;;;;;;;19.30;6.30;;;;;;;9.39;76.00;99292.21;106035;1274;107498;-67
2022/09/22 01:09:41;;;;;;;15.60;6.80;;;;;;;9.39;76.10;99293.77;106091;1274;95185;-65
2022/09/22 01:12:13;;;;;;;16.30;6.40;;;;;;;9.41;76.10;99297.02;106078;1274;97860;-63
2022/09/22 01:14:51;;;;;;;15.70;6.80;;;;;;;9.41;76.10;99292.95;106090;1274;112098;-66
2022/09/22 01:17:37;;;;;;;16.10;6.60;;;;;;;9.40;76.09;99293.00;106162;1273;98460;-62
2022/09/22 01:20:29;;;;;;;14.90;6.90;;;;;;;9.39;76.13;99296.94;106100;1274;108354;-65
2022/09/22 01:23:34;;;;;;;14.90;6.50;;;;;;;9.38;76.13;99296.50;106087;1274;97937;-61
2022/09/22 01:26:29;;;;;;;16.10;7.10;;;;;;;9.37;76.16;99298.71;106084;1274;97889;-65
2022/09/22 01:29:36;;;;;;;17.20;7.00;;;;;;;9.36;76.16;99296.09;106049;1274;112092;-65
2022/09/22 01:32:11;;;;;;;16.70;7.40;;;;;;;9.36;76.22;99296.98;106125;1274;97896;-64
2022/09/22 01:35:12;;;;;;;18.50;6.90;;;;;;;9.35;76.13;99297.23;105984;1274;107768;-64
2022/09/22 01:38:01;;;;;;;19.20;6.90;;;;;;;9.33;76.21;99300.88;106057;1274;95262;-65
2022/09/22 01:40:52;;;;;;;18.60;7.80;;;;;;;9.34;76.26;99301.71;106131;1274;95372;-65
2022/09/22 01:43:25;;;;;;;17.80;7.30;;;;;;;9.35;76.34;99303.77;106071;1274;112284;-65
2022/09/22 01:46:00;;;;;;;17.70;8.40;;;;;;;9.36;76.30;99302.14;106082;1274;97849;-66
2022/09/22 01:48:35;;;;;;;16.50;7.50;;;;;;;9.37;76.36;99299.91;106007;1274;107609;-66
2022/09/22 01:51:21;;;;;;;15.70;7.70;;;;;;;9.38;76.31;99302.84;106102;1274;97968;-64
2022/09/22 01:54:16;;;;;;;17.40;8.20;;;;;;;9.36;76.24;99300.71;106001;1274;98090;-65
2022/09/22 01:56:55;;;;;;;21.10;8.50;;;;;;;9.33;76.29;99300.36;106103;1274;112273;-66
2022/09/22 01:59:28;;;;;;;17.40;7.40;;;;;;;9.32;76.35;99299.91;106150;1274;96311;-65
2022/09/22 02:02:36;;;;;;;20.20;8.50;;;;;;;9.31;76.40;99298.35;106102;1274;107781;-65
2022/09/22 02:05:13;;;;;;;19.80;8.80;;;;;;;9.32;76.37;99298.85;105931;1274;97159;-65
2022/09/22 02:07:48;;;;;;;18.90;9.20;;;;;;;9.32;76.30;99294.44;106124;1274;98050;-62
2022/09/22 02:10:26;;;;;;;20.60;9.20;;;;;;;9.31;76.42;99297.30;106052;1274;111012;-61
2022/09/22 02:12:54;;;;;;;20.10;8.30;;;;;;;9.30;76.34;99296.52;106149;1274;97912;-63
2022/09/22 02:18:24;;;;;;;18.00;8.50;;;;;;;9.28;76.47;99300.00;106179;1274;97998;-65
2022/09/22 02:20:55;;;;;;;19.80;8.90;;;;;;;9.28;76.37;99302.31;106044;1274;98072;-65
2022/09/22 02:23:24;;;;;;;18.80;9.00;;;;;;;9.27;76.38;99299.16;106094;1274;112157;-62
2022/09/22 02:26:00;;;;;;;22.80;8.90;;;;;;;9.26;76.40;99294.61;106074;1274;97896;-65
2022/09/22 02:28:36;;;;;;;18.70;8.40;;;;;;;9.27;76.54;99291.76;105991;1274;107873;-63
2022/09/22 02:31:10;;;;;;;18.10;8.80;;;;;;;9.27;76.51;99296.35;106079;1274;98580;-66
2022/09/22 02:33:55;;;;;;;21.90;9.30;;;;;;;9.27;76.48;99297.02;106086;1274;97949;-65
2022/09/22 02:36:44;;;;;;;20.30;9.10;;;;;;;9.26;76.48;99295.14;106112;1274;111362;-66
2022/09/22 02:39:29;;;;;;;23.50;10.00;;;;;;;9.24;76.47;99297.73;106044;1274;96157;-66
2022/09/22 02:42:31;;;;;;;20.10;9.00;;;;;;;9.23;76.52;99293.91;106023;1274;108084;-65
2022/09/22 02:45:08;;;;;;;20.70;8.90;;;;;;;9.24;76.70;99293.12;106057;1274;95205;-69
2022/09/22 02:47:49;;;;;;;19.20;9.10;;;;;;;9.26;76.66;99290.75;106130;1274;95178;-68
2022/09/22 02:50:25;;;;;;;18.70;9.40;;;;;;;9.26;76.72;99288.59;106095;1274;112033;-66
2022/09/22 02:53:03;;;;;;;20.50;9.50;;;;;;;9.28;76.68;99294.52;106185;1274;97909;-62
2022/09/22 02:55:31;;;;;;;20.80;9.20;;;;;;;9.27;76.63;99286.77;106150;1274;107928;-66
2022/09/22 02:58:00;;;;;;;20.10;9.50;;;;;;;9.26;76.69;99287.70;106195;1274;95296;-65
2022/09/22 03:00:31;;;;;;;21.20;9.60;;;;;;;9.27;76.79;99289.45;106180;1274;97885;-66
2022/09/22 03:03:10;;;;;;;21.40;10.80;;;;;;;9.26;76.68;99286.11;106116;1274;111981;-65
2022/09/22 03:05:42;;;;;;;21.10;10.20;;;;;;;9.27;76.75;99287.65;106094;1274;97921;-65
2022/09/22 03:08:10;;;;;;;21.50;10.10;;;;;;;9.28;76.78;99288.52;106022;1274;108428;-66
2022/09/22 03:10:43;;;;;;;20.00;10.30;;;;;;;9.28;76.77;99288.66;106117;1274;97960;-66
2022/09/22 03:13:15;;;;;;;21.40;10.20;;;;;;;9.29;76.71;99288.42;106047;1274;97890;-64
2022/09/22 03:15:48;;;;;;;21.10;10.20;;;;;;;9.29;76.73;99288.40;106121;1274;111388;-65
2022/09/22 03:18:16;;;;;;;18.90;9.50;;;;;;;9.29;76.77;99287.19;106125;1274;95182;-66
2022/09/22 03:20:45;;;;;;;19.40;9.30;;;;;;;9.29;76.81;99284.54;106099;1274;109417;-66
2022/09/22 03:23:16;;;;;;;20.70;10.00;;;;;;;9.28;76.81;99284.41;106022;1274;96192;-66
2022/09/22 03:25:44;;;;;;;19.20;9.20;;;;;;;9.30;76.85;99288.20;106097;1274;95196;-66
2022/09/22 03:28:12;;;;;;;21.50;10.00;;;;;;;9.30;76.81;99287.48;106092;1274;112025;-65
2022/09/22 03:30:47;;;;;;;21.50;10.30;;;;;;;9.30;76.76;99283.41;106130;1274;97952;-66
2022/09/22 03:33:15;;;;;;;19.30;9.90;;;;;;;9.29;76.90;99283.63;106098;1274;108364;-66
2022/09/22 03:35:47;;;;;;;20.90;10.80;;;;;;;9.29;76.88;99286.29;106086;1274;96569;-64
2022/09/22 03:38:15;;;;;;;21.90;10.80;;;;;;;9.30;76.89;99287.85;106104;1274;97995;-66
2022/09/22 03:40:52;;;;;;;20.50;11.10;;;;;;;9.30;76.89;99286.96;105997;1274;111899;-66
2022/09/22 03:43:21;;;;;;;21.10;10.50;;;;;;;9.29;76.96;99287.86;106072;1274;97984;-66
2022/09/22 03:46:04;;;;;;;21.50;11.40;;;;;;;9.30;76.96;99285.16;106103;1274;107816;-65
2022/09/22 03:48:31;;;;;;;20.70;10.20;;;;;;;9.30;76.98;99287.27;106130;1274;98087;-65
2022/09/22 03:50:59;;;;;;;19.90;10.30;;;;;;;9.31;77.02;99290.42;106102;1274;97017;-64
2022/09/22 03:53:31;;;;;;;23.20;11.50;;;;;;;9.30;76.99;99287.64;106039;1274;128977;-64
2022/09/22 03:56:11;;;;;;;20.90;10.20;;;;;;;9.32;77.02;99288.40;106125;1274;96403;-64
2022/09/22 03:58:44;;;;;;;20.70;11.40;;;;;;;9.33;77.04;99290.48;106043;1274;107797;-66
2022/09/22 04:01:12;;;;;;;21.40;11.80;;;;;;;9.33;77.00;99288.88;106162;1274;97893;-68
2022/09/22 04:03:44;;;;;;;22.10;11.40;;;;;;;9.33;77.07;99287.77;106174;1274;97953;-68
2022/09/22 04:06:16;;;;;;;22.70;11.30;;;;;;;9.34;77.06;99288.45;106156;1274;114173;-67
2022/09/22 04:08:44;;;;;;;22.20;11.10;;;;;;;9.36;77.15;99292.05;106209;1274;97908;-69
2022/09/22 04:11:15;;;;;;;22.30;12.40;;;;;;;9.37;77.12;99295.88;106148;1274;106700;-65
2022/09/22 04:13:44;;;;;;;24.70;12.30;;;;;;;9.37;77.08;99298.53;106117;1273;98020;-65
2022/09/22 04:16:20;;;;;;;23.00;12.70;;;;;;;9.36;77.15;99300.84;106058;1273;98031;-63
2022/09/22 04:18:49;;;;;;;33.80;12.60;;;;;;;9.37;77.17;99299.21;106123;1274;111970;-63
2022/09/22 04:21:16;;;;;;;21.70;12.30;;;;;;;9.37;77.06;99299.58;106109;1274;97890;-64
2022/09/22 04:23:48;;;;;;;20.60;11.40;;;;;;;9.36;77.13;99296.09;106051;1274;108021;-63
2022/09/22 04:26:16;;;;;;;22.90;12.50;;;;;;;9.38;77.26;99299.19;106139;1274;97861;-64
2022/09/22 04:28:44;;;;;;;23.60;12.80;;;;;;;9.38;77.11;99299.99;106157;1274;97001;-68
2022/09/22 04:31:12;;;;;;;24.70;13.00;;;;;;;9.37;77.17;99302.20;106140;1273;111816;-65
2022/09/22 04:33:47;;;;;;;23.60;12.60;;;;;;;9.38;77.24;99298.95;106187;1274;96329;-65
2022/09/22 04:36:15;;;;;;;22.70;13.40;;;;;;;9.38;77.04;99297.90;106036;1274;108913;-64
2022/09/22 04:38:46;;;;;;;23.50;12.70;;;;;;;9.37;77.22;99302.01;106131;1274;96531;-63
2022/09/22 04:41:14;;;;;;;22.70;13.30;;;;;;;9.38;77.17;99302.36;106042;1274;95270;-64
2022/09/22 04:43:42;;;;;;;22.10;13.00;;;;;;;9.37;77.22;99303.42;106205;1274;112047;-65
2022/09/22 04:46:12;;;;;;;23.80;13.90;;;;;;;9.39;77.21;99303.71;106219;1274;97935;-64
2022/09/22 04:48:40;;;;;;;25.30;14.20;;;;;;;9.39;77.12;99304.20;106086;1273;108072;-65
2022/09/22 04:51:16;;;;;;;22.60;13.70;;;;;;;9.39;77.23;99306.35;106145;1274;98531;-65
2022/09/22 04:53:44;;;;;;;24.10;13.10;;;;;;;9.41;77.36;99306.45;106164;1274;97854;-65
2022/09/22 04:56:14;;;;;;;24.00;13.10;;;;;;;9.42;77.29;99307.26;106151;1274;112147;-64
2022/09/22 04:58:45;;;;;;;26.80;13.20;;;;;;;9.42;77.30;99305.30;106173;1274;97998;-63
2022/09/22 05:01:13;;;;;;;24.40;13.80;;;;;;;9.43;77.34;99308.80;106046;1274;108245;-64
2022/09/22 05:03:46;;;;;;;24.80;14.20;;;;;;;9.43;77.32;99311.77;106106;1274;97999;-64
2022/09/22 05:06:14;;;;;;;29.60;16.00;;;;;;;9.42;77.20;99308.85;106182;1274;97899;-64
2022/09/22 05:08:42;;;;;;;27.40;15.60;;;;;;;9.42;77.28;99309.88;105949;1275;111972;-63
2022/09/22 05:11:13;;;;;;;24.40;14.50;;;;;;;9.42;77.29;99311.48;106108;1274;98764;-64
2022/09/22 05:13:42;;;;;;;28.30;16.00;;;;;;;9.42;77.25;99312.55;106073;1274;108330;-64
2022/09/22 05:16:12;;;;;;;24.20;14.30;;;;;;;9.41;77.24;99309.42;106094;1272;95292;-64
2022/09/22 05:18:41;;;;;;;26.10;14.80;;;;;;;9.42;77.32;99311.81;106188;1274;97982;-64
2022/09/22 05:21:12;;;;;;;26.40;14.40;;;;;;;9.44;77.41;99306.42;106191;1274;112279;-65
2022/09/22 05:23:47;;;;;;;26.10;14.50;;;;;;;9.46;77.32;99308.25;106159;1274;95425;-65
2022/09/22 05:26:15;;;;;;;24.70;14.90;;;;;;;9.48;77.38;99314.61;106195;1271;108343;-65
2022/09/22 05:28:44;;;;;;;27.80;15.40;;;;;;;9.49;77.38;99312.08;106162;1274;97841;-64
2022/09/22 05:31:13;;;;;;;25.10;15.20;;;;;;;9.50;77.43;99317.31;106131;1274;98487;-66
2022/09/22 05:33:42;;;;;;;26.40;15.40;;;;;;;9.51;77.32;99319.02;106146;1274;112008;-64
2022/09/22 05:36:18;;;;;;;26.20;14.30;;;;;;;9.52;77.41;99317.58;106190;1273;95199;-64
2022/09/22 05:38:46;;;;;;;24.60;14.10;;;;;;;9.54;77.27;99317.13;106218;1274;108450;-63
2022/09/22 05:41:14;;;;;;;24.30;13.90;;;;;;;9.53;77.25;99313.27;106148;1274;97942;-63
2022/09/22 05:43:42;;;;;;;24.70;13.60;;;;;;;9.53;77.27;99311.86;106056;1274;97128;-66
2022/09/22 05:46:10;;;;;;;25.80;13.80;;;;;;;9.54;77.22;99316.23;106023;1274;110192;-65
2022/09/22 05:48:38;;;;;;;25.20;15.00;;;;;;;9.55;77.37;99314.55;106095;1273;97915;-65
2022/09/22 05:51:06;;;;;;;23.90;13.80;;;;;;;9.58;77.42;99320.41;106079;1274;108493;-66
2022/09/22 05:53:34;;;;;;;26.30;13.70;;;;;;;9.59;77.37;99324.91;106028;1277;97816;-66
2022/09/22 05:56:02;;;;;;;23.60;13.10;;;;;;;9.61;77.35;99325.70;106066;1274;97984;-63
2022/09/22 05:58:30;;;;;;;24.80;13.50;;;;;;;9.62;77.33;99324.57;106052;1274;111907;-64
2022/09/22 06:00:58;;;;;;;24.30;13.80;;;;;;;9.63;77.36;99331.02;106070;1274;97976;-65
2022/09/22 06:03:26;;;;;;;22.90;12.80;;;;;;;9.65;77.43;99341.00;106068;1274;108233;-66
2022/09/22 06:05:54;;;;;;;25.80;13.90;;;;;;;9.66;77.39;99339.34;106050;1274;95256;-67
2022/09/22 06:08:22;;;;;;;26.90;14.70;;;;;;;9.66;77.43;99340.74;106066;1274;97842;-67
2022/09/22 06:10:50;;;;;;;24.30;13.90;;;;;;;9.67;77.38;99340.35;106052;1274;110992;-64
2022/09/22 06:13:18;;;;;;;23.70;13.60;;;;;;;9.67;77.44;99341.75;106070;1274;98579;-65
2022/09/22 06:15:47;;;;;;;25.00;14.10;;;;;;;9.67;77.44;99344.20;106065;1274;108428;-66
2022/09/22 06:18:19;;;;;;;20.90;12.40;;;;;;;9.69;77.49;99345.35;106024;1274;97908;-69
2022/09/22 06:20:54;;;;;;;23.00;12.70;;;;;;;9.70;77.43;99346.54;106095;1274;95353;-65
2022/09/22 06:23:24;;;;;;;21.70;13.40;;;;;;;9.72;77.34;99344.67;106051;1274;112053;-64
2022/09/22 06:25:57;;;;;;;24.40;13.30;;;;;;;9.72;77.46;99347.44;106078;1274;95370;-64
2022/09/22 06:28:26;;;;;;;22.60;13.30;;;;;;;9.74;77.39;99350.67;106022;1274;107864;-66
2022/09/22 06:30:57;;;;;;;23.40;14.20;;;;;;;9.74;77.37;99348.04;106082;1274;95828;-65
2022/09/22 06:33:26;;;;;;;21.30;11.90;;;;;;;9.75;77.42;99349.60;106116;1274;97869;-64
2022/09/22 06:35:56;;;;;;;24.60;13.50;;;;;;;9.76;77.44;99350.06;106016;1274;111546;-64
2022/09/22 06:38:24;;;;;;;21.90;13.00;;;;;;;9.77;77.59;99346.23;106024;1274;98476;-64
2022/09/22 06:40:57;;;;;;;27.20;14.10;;;;;;;9.81;77.55;99348.65;105829;1275;108325;-66
2022/09/22 06:43:25;;;;;;;24.10;13.50;;;;;;;9.83;77.52;99350.45;107024;1274;97869;-63
2022/09/22 06:45:58;;;;;;;21.50;12.20;;;;;;;9.83;77.46;99350.96;106158;1274;97962;-64
2022/09/22 06:48:26;;;;;;;22.70;13.40;;;;;;;9.87;77.51;99352.36;106148;1274;110428;-64
2022/09/22 06:50:54;;;;;;;22.80;13.80;;;;;;;9.89;77.54;99354.66;106102;1274;97918;-64
2022/09/22 06:53:23;;;;;;;23.10;13.40;;;;;;;9.89;77.45;99357.20;106123;1274;108065;-62
2022/09/22 06:55:54;;;;;;;23.80;12.90;;;;;;;9.88;77.44;99354.76;106138;1274;97434;-66
2022/09/22 06:58:22;;;;;;;23.70;12.80;;;;;;;9.88;77.50;99354.02;106153;1274;97810;-64
2022/09/22 07:00:52;;;;;;;21.30;12.60;;;;;;;9.89;77.46;99355.23;106176;1273;110386;-65
2022/09/22 07:03:23;;;;;;;22.10;12.80;;;;;;;9.91;77.57;99360.41;106155;1274;97876;-63
2022/09/22 07:05:53;;;;;;;22.60;12.20;;;;;;;9.93;77.59;99359.73;106159;1274;107756;-65
2022/09/22 07:08:22;;;;;;;22.20;12.90;;;;;;;9.96;77.55;99362.91;106209;1274;95172;-63
2022/09/22 07:11:02;;;;;;;23.50;12.80;;;;;;;9.97;77.60;99362.85;106131;1274;97856;-64
2022/09/22 07:13:31;;;;;;;23.70;13.30;;;;;;;9.98;77.51;99363.29;106286;1274;110440;-64
2022/09/22 07:16:01;;;;;;;22.80;12.70;;;;;;;10.00;77.52;99367.23;106109;1274;97696;-65
2022/09/22 07:18:30;;;;;;;22.50;12.20;;;;;;;10.04;77.51;99368.08;106079;1274;107826;-65
2022/09/22 07:21:07;;;;;;;22.90;12.70;;;;;;;10.06;77.59;99371.99;106079;1273;95378;-64
2022/09/22 07:23:35;;;;;;;21.00;12.30;;;;;;;10.05;77.45;99368.92;106110;1274;97921;-65
2022/09/22 07:26:05;;;;;;;20.50;11.60;;;;;;;10.02;77.37;99375.80;106102;1274;111493;-65
2022/09/22 07:28:35;;;;;;;20.50;11.40;;;;;;;10.00;77.43;99370.43;105994;1274;97906;-62
2022/09/22 07:31:06;;;;;;;20.80;11.10;;;;;;;10.01;77.55;99366.69;106079;1274;107367;-64
2022/09/22 07:33:36;;;;;;;19.90;11.00;;;;;;;10.03;77.46;99364.23;106153;1274;97954;-61
2022/09/22 07:36:10;;;;;;;21.30;11.00;;;;;;;10.03;77.43;99365.50;106121;1275;97874;-64
2022/09/22 07:38:40;;;;;;;21.30;11.90;;;;;;;10.04;77.49;99365.02;106122;1274;111772;-64
2022/09/22 07:41:14;;;;;;;20.10;11.00;;;;;;;10.08;77.57;99367.30;106181;1275;97888;-64
2022/09/22 07:43:42;;;;;;;19.40;10.20;;;;;;;10.10;77.53;99366.09;106094;1274;108779;-65
2022/09/22 07:46:12;;;;;;;21.00;10.40;;;;;;;10.10;77.46;99367.33;106040;1274;95349;-66
2022/09/22 07:48:42;;;;;;;19.80;9.30;;;;;;;10.12;77.51;99369.48;106033;1274;97887;-64
2022/09/22 07:51:20;;;;;;;20.00;9.30;;;;;;;10.14;77.47;99369.54;106003;1274;112047;-64
2022/09/22 07:53:53;;;;;;;17.40;8.60;;;;;;;10.17;77.51;99368.14;106020;1274;98078;-65
2022/09/22 07:56:27;;;;;;;15.70;7.70;;;;;;;10.20;77.42;99370.22;106124;1274;108273;-64
2022/09/22 07:58:55;;;;;;;18.20;9.90;;;;;;;10.18;77.32;99367.14;106080;1274;95293;-63
2022/09/22 08:01:30;;;;;;;16.30;8.30;;;;;;;10.18;77.41;99370.71;106135;1275;97883;-65
2022/09/22 08:03:58;;;;;;;;;;;;;;;10.16;77.28;99368.88;106165;1275;111318;-62
2022/09/22 08:06:27;;;;;;;17.50;8.90;;;;;;;10.15;77.47;99369.49;106151;1274;97847;-62
2022/09/22 08:08:56;;;;;;;17.30;7.90;;;;;;;10.18;77.49;99374.96;106159;1274;107925;-63
2022/09/22 08:11:28;;;;;;;16.70;7.80;;;;;;;10.21;77.54;99375.28;106079;1274;97904;-65
2022/09/22 08:14:01;;;;;;;17.70;8.20;;;;;;;10.22;77.34;99375.03;106021;1274;98008;-64
2022/09/22 08:16:32;;;;;;;17.90;8.60;;;;;;;10.23;77.45;99374.42;105990;1275;112035;-66
2022/09/22 08:19:09;;;;;;;17.50;7.80;;;;;;;10.26;77.49;99375.13;105992;1274;97962;-66
2022/09/22 08:21:40;;;;;;;18.50;8.90;;;;;;;10.29;77.29;99373.52;105976;1274;108338;-63
2022/09/22 08:24:21;;;;;;;16.50;8.10;;;;;;;10.28;77.25;99373.75;106008;1274;98588;-64
2022/09/22 08:26:53;;;;;;;17.90;8.50;;;;;;;10.26;77.22;99375.52;105995;1274;97876;-65
2022/09/22 08:29:23;;;;;;;17.20;7.80;;;;;;;10.26;77.28;99377.79;106023;1274;110196;-65
2022/09/22 08:31:52;;;;;;;17.00;8.50;;;;;;;10.28;77.25;99378.18;106037;1274;95246;-64
2022/09/22 08:34:21;;;;;;;15.00;7.70;;;;;;;10.32;77.20;99379.57;106006;1274;107896;-64
2022/09/22 08:36:51;;;;;;;18.40;9.10;;;;;;;10.34;77.31;99379.57;106016;1275;98023;-64
2022/09/22 08:39:19;;;;;;;18.20;8.90;;;;;;;10.37;77.21;99377.42;106005;1274;97857;-64
2022/09/22 08:41:46;;;;;;;18.40;8.10;;;;;;;10.38;77.25;99378.77;105955;1274;111770;-64
2022/09/22 08:44:21;;;;;;;16.20;8.30;;;;;;;10.39;77.14;99377.15;106022;1274;97881;-64
2022/09/22 08:46:52;;;;;;;16.30;7.80;;;;;;;10.38;77.22;99379.14;105974;1274;108270;-63
2022/09/22 08:52:37;;;;;;;17.30;7.30;;;;;;;10.39;77.19;99385.25;105984;1277;97860;-64
2022/09/22 08:55:18;;;;;;;15.00;7.20;;;;;;;10.40;77.22;99386.48;106105;1275;111398;-64
2022/09/22 08:58:15;;;;;;;15.90;7.30;;;;;;;10.42;77.22;99386.71;106187;1274;97891;-64
2022/09/22 09:00:55;;;;;;;15.80;7.50;;;;;;;10.42;77.11;99385.29;105993;1274;108432;-64
2022/09/22 09:03:50;;;;;;;18.90;8.20;;;;;;;10.42;77.17;99385.27;106016;1277;97838;-66
2022/09/22 09:06:38;;;;;;;13.70;7.00;;;;;;;10.42;77.18;99387.55;105999;1277;97878;-66
2022/09/22 09:09:19;;;;;;;15.50;7.10;;;;;;;10.41;77.14;99392.26;105965;1277;111989;-66
2022/09/22 09:12:20;;;;;;;16.50;8.10;;;;;;;10.42;77.06;99389.69;105998;1274;97956;-64
2022/09/22 09:15:04;;;;;;;16.10;6.90;;;;;;;10.44;77.13;99390.64;106015;1274;107741;-65
2022/09/22 09:17:36;;;;;;;15.30;7.50;;;;;;;10.43;77.05;99389.27;106003;1274;97911;-66
2022/09/22 09:20:18;;;;;;;13.80;7.30;;;;;;;10.45;77.14;99389.33;106027;1274;97927;-66
2022/09/22 09:22:55;;;;;;;16.60;7.50;;;;;;;10.49;77.16;99384.28;106053;1274;112049;-67
2022/09/22 09:25:38;;;;;;;16.60;7.20;;;;;;;10.53;77.02;99383.86;105960;1276;97983;-65
2022/09/22 09:28:19;;;;;;;15.70;7.30;;;;;;;10.58;77.09;99386.91;105996;1274;108376;-65
2022/09/22 09:31:03;;;;;;;16.70;7.40;;;;;;;10.63;77.08;99385.46;106060;1275;97764;-63
2022/09/22 09:33:45;;;;;;;15.50;7.60;;;;;;;10.68;77.12;99386.21;106037;1277;97820;-66
2022/09/22 09:36:19;;;;;;;15.00;7.20;;;;;;;10.72;77.16;99385.73;106039;1274;112358;-65
2022/09/22 09:38:55;;;;;;;17.10;7.80;;;;;;;10.78;77.11;99384.30;106114;1274;95505;-66
2022/09/22 09:41:31;;;;;;;15.30;7.30;;;;;;;10.83;77.13;99388.15;106033;1274;108372;-68
2022/09/22 09:44:02;;;;;;;17.80;7.10;;;;;;;10.86;76.98;99388.14;106044;1277;97941;-65
2022/09/22 09:46:49;;;;;;;15.00;6.80;;;;;;;10.86;77.00;99385.84;106084;1274;97872;-65
2022/09/22 09:49:20;;;;;;;16.90;7.60;;;;;;;10.89;77.07;99388.88;105987;1275;112195;-65
2022/09/22 09:51:51;;;;;;;16.00;7.20;;;;;;;10.91;76.96;99388.92;106044;1274;97896;-61
2022/09/22 09:54:22;;;;;;;14.40;7.00;;;;;;;10.94;76.92;99389.27;106014;1277;109158;-66
2022/09/22 09:57:23;;;;;;;15.90;7.60;;;;;;;10.97;77.11;99388.50;105996;1274;95295;-65
2022/09/22 10:00:30;;;;;;;14.00;6.90;;;;;;;10.97;77.01;99388.84;105899;1275;95645;-65
2022/09/22 10:03:20;;;;;;;12.80;6.80;;;;;;;10.95;76.88;99388.08;106062;1274;113551;-64
2022/09/22 10:06:05;;;;;;;13.60;6.90;;;;;;;10.92;76.89;99390.42;106057;1274;97756;-64
2022/09/22 10:08:49;;;;;;;13.70;6.80;;;;;;;10.93;76.97;99392.88;106116;1275;107612;-64
2022/09/22 10:11:31;;;;;;;16.20;6.60;;;;;;;10.95;76.81;99389.88;106104;1275;97967;-63
2022/09/22 10:13:59;;;;;;;18.70;8.10;;;;;;;10.98;76.95;99392.30;106157;1275;95269;-64
2022/09/22 10:16:32;;;;;;;13.10;6.00;;;;;;;11.03;76.98;99392.71;106087;1275;112007;-64
2022/09/22 10:19:19;;;;;;;16.90;7.10;;;;;;;11.05;76.83;99395.04;106076;1274;97945;-60
2022/09/22 10:21:48;;;;;;;13.70;6.20;;;;;;;11.09;76.84;99395.45;106104;1277;107712;-66
2022/09/22 10:24:30;;;;;;;10.20;5.70;;;;;;;11.16;76.85;99394.48;106141;1274;97762;-66
2022/09/22 10:26:59;;;;;;;14.30;5.90;;;;;;;11.21;76.77;99394.64;106146;1274;95343;-64
2022/09/22 10:29:32;;;;;;;11.30;5.50;;;;;;;11.21;76.75;99391.60;106003;1274;112105;-65
2022/09/22 10:32:05;;;;;;;13.70;5.90;;;;;;;11.21;76.84;99390.05;105996;1275;97998;-67
2022/09/22 10:34:36;;;;;;;11.30;5.20;;;;;;;11.20;76.76;99391.34;106009;1274;108483;-66
2022/09/22 10:37:09;;;;;;;12.50;5.60;;;;;;;11.20;76.74;99389.20;106057;1275;97973;-65
2022/09/22 10:39:50;;;;;;;13.80;5.90;;;;;;;11.20;76.73;99391.34;106140;1275;95295;-65
2022/09/22 10:42:22;;;;;;;11.20;6.00;;;;;;;11.22;76.71;99390.31;106116;1275;112027;-65
2022/09/22 10:44:52;;;;;;;14.30;6.10;;;;;;;11.23;76.69;99386.31;106110;1274;97697;-66
2022/09/22 10:47:20;;;;;;;12.30;5.80;;;;;;;11.24;76.59;99385.52;106042;1275;107819;-66
2022/09/22 10:50:06;;;;;;;12.90;5.90;;;;;;;11.26;76.53;99388.61;106133;1274;97876;-66
2022/09/22 10:52:54;;;;;;;11.80;6.00;;;;;;;11.25;76.57;99384.98;106119;1274;97857;-67
2022/09/22 10:55:29;;;;;;;12.40;6.30;;;;;;;11.25;76.56;99385.50;106078;1274;112324;-65
2022/09/22 10:58:03;;;;;;;13.00;6.60;;;;;;;11.25;76.66;99386.04;105992;1277;97909;-66
2022/09/22 11:00:39;;;;;;;13.40;6.30;;;;;;;11.28;76.53;99385.45;106015;1275;108412;-65
2022/09/22 11:03:26;;;;;;;14.40;6.00;;;;;;;11.31;76.54;99382.44;106049;1274;97746;-65
2022/09/22 11:12:28;;;;;;;15.30;6.30;;;;;;;11.37;76.38;99374.70;106134;1274;95374;-65
2022/09/22 11:15:13;;;;;;;14.10;6.60;;;;;;;11.43;76.27;99370.68;106123;1274;108273;-64
2022/09/22 11:17:52;;;;;;;14.80;6.70;;;;;;;11.50;76.41;99372.17;106108;1275;96617;-65
2022/09/22 11:20:32;;;;;;;15.10;6.90;;;;;;;11.55;76.37;99364.21;106049;1274;97826;-65
2022/09/22 11:23:15;;;;;;;17.10;6.80;;;;;;;11.59;76.35;99368.67;105991;1274;112629;-65
2022/09/22 11:26:11;;;;;;;18.40;7.70;;;;;;;11.64;76.25;99363.02;105994;1275;95185;-64
2022/09/22 11:29:06;;;;;;;16.40;6.90;;;;;;;11.72;76.26;99362.98;105954;1274;108348;-64
2022/09/22 11:32:04;;;;;;;16.10;6.70;;;;;;;11.82;76.30;99357.09;105909;1275;97861;-64
2022/09/22 11:34:48;;;;;;;11.90;6.20;;;;;;;11.89;76.27;99356.57;106136;1274;97885;-65
2022/09/22 11:37:31;;;;;;;15.40;6.40;;;;;;;11.96;76.17;99355.22;106052;1274;111700;-64
2022/09/22 11:40:02;;;;;;;17.80;6.70;;;;;;;12.00;76.14;99354.23;106058;1274;97952;-64
2022/09/22 11:42:42;;;;;;;12.10;5.80;;;;;;;12.01;76.07;99352.93;106142;1274;108280;-65
2022/09/22 11:45:32;;;;;;;13.20;5.40;;;;;;;12.02;76.05;99356.37;106108;1274;97870;-63
2022/09/22 11:48:39;;;;;;;14.20;6.40;;;;;;;12.05;76.04;99354.90;106022;1275;97868;-66
2022/09/22 11:51:33;;;;;;;14.10;6.60;;;;;;;12.07;76.04;99351.06;106059;1274;112126;-64
2022/09/22 11:54:45;;;;;;;18.30;7.00;;;;;;;12.11;76.08;99349.38;106096;1275;97910;-65
2022/09/22 11:57:22;;;;;;;14.80;6.00;;;;;;;12.16;75.98;99353.05;106035;1276;108364;-65
2022/09/22 11:59:57;;;;;;;15.50;7.10;;;;;;;12.17;75.91;99347.98;106082;1274;97889;-64
2022/09/22 12:02:40;;;;;;;16.60;7.70;;;;;;;12.21;76.02;99342.73;106128;1274;97846;-67
2022/09/22 12:05:35;;;;;;;18.00;7.70;;;;;;;12.26;75.97;99333.94;106095;1274;110335;-64